sensor_id;sensor_type;location;lat;lon;timestamp;temperature;humidity
77803;DHT22;66993;48.256;16.422;2023-02-28T00:00:17;0.0;70.0
77803;DHT22;66993;48.256;16.422;2023-02-28T00:05:18;-0.2;70.0
77803;DHT22;66993;48.256;16.422;2023-02-28T00:10:18;-0.2;70.0
77803;DHT22;66993;48.256;16.422;2023-02-28T00:15:17;-0.1;70.0
77803;DHT22;66993;48.256;16.422;2023-02-28T00:20:17;-0.3;70.0
77803;DHT22;66993;48.256;16.422;2023-02-28T00:25:17;-0.3;70.0
77803;DHT22;66993;48.256;16.422;2023-02-28T00:30:17;-0.2;71.0
77803;DHT22;66993;48.256;16.422;2023-02-28T00:35:17;-0.1;71.0
77803;DHT22;66993;48.256;16.422;2023-02-28T00:40:17;-0.2;71.0
77803;DHT22;66993;48.256;16.422;2023-02-28T00:45:17;-0.2;71.0
77803;DHT22;66993;48.256;16.422;2023-02-28T00:50:17;-0.4;71.0
77803;DHT22;66993;48.256;16.422;2023-02-28T00:55:17;-0.3;71.0
77803;DHT22;66993;48.256;16.422;2023-02-28T01:00:17;-0.3;71.0
77803;DHT22;66993;48.256;16.422;2023-02-28T01:05:17;-0.4;71.0
77803;DHT22;66993;48.256;16.422;2023-02-28T01:10:17;-0.3;71.0
77803;DHT22;66993;48.256;16.422;2023-02-28T01:15:17;-0.3;71.0
77803;DHT22;66993;48.256;16.422;2023-02-28T01:20:17;-0.3;71.0
77803;DHT22;66993;48.256;16.422;2023-02-28T01:25:17;-0.4;71.0
77803;DHT22;66993;48.256;16.422;2023-02-28T01:30:17;-0.5;71.0
77803;DHT22;66993;48.256;16.422;2023-02-28T01:35:17;-0.4;71.0
77803;DHT22;66993;48.256;16.422;2023-02-28T01:40:17;-0.5;71.0
77803;DHT22;66993;48.256;16.422;2023-02-28T01:45:19;-0.5;71.0
77803;DHT22;66993;48.256;16.422;2023-02-28T01:50:17;-0.6;71.0
77803;DHT22;66993;48.256;16.422;2023-02-28T01:55:17;-0.7;71.0
77803;DHT22;66993;48.256;16.422;2023-02-28T02:00:17;-0.6;71.0
77803;DHT22;66993;48.256;16.422;2023-02-28T02:05:17;-0.7;71.0
77803;DHT22;66993;48.256;16.422;2023-02-28T02:10:18;-0.7;71.0
77803;DHT22;66993;48.256;16.422;2023-02-28T02:15:18;-0.7;71.0
77803;DHT22;66993;48.256;16.422;2023-02-28T02:20:27;-0.7;71.0
77803;DHT22;66993;48.256;16.422;2023-02-28T02:25:19;-0.7;71.0
77803;DHT22;66993;48.256;16.422;2023-02-28T02:30:21;-0.7;71.0
77803;DHT22;66993;48.256;16.422;2023-02-28T02:35:17;-0.7;71.0
77803;DHT22;66993;48.256;16.422;2023-02-28T02:40:17;-0.7;71.0
77803;DHT22;66993;48.256;16.422;2023-02-28T02:45:18;-0.7;71.0
77803;DHT22;66993;48.256;16.422;2023-02-28T02:50:17;-0.7;71.0
77803;DHT22;66993;48.256;16.422;2023-02-28T02:55:17;-0.9;72.0
77803;DHT22;66993;48.256;16.422;2023-02-28T03:00:17;-0.9;72.0
77803;DHT22;66993;48.256;16.422;2023-02-28T03:05:18;-0.9;72.0
77803;DHT22;66993;48.256;16.422;2023-02-28T03:10:34;-1.0;72.0
77803;DHT22;66993;48.256;16.422;2023-02-28T03:15:17;-1.0;72.0
77803;DHT22;66993;48.256;16.422;2023-02-28T03:20:17;-1.0;72.0
77803;DHT22;66993;48.256;16.422;2023-02-28T03:25:18;-1.0;72.0
77803;DHT22;66993;48.256;16.422;2023-02-28T03:30:18;-1.0;72.0
77803;DHT22;66993;48.256;16.422;2023-02-28T03:35:18;-1.0;72.0
77803;DHT22;66993;48.256;16.422;2023-02-28T03:40:17;-1.0;72.0
77803;DHT22;66993;48.256;16.422;2023-02-28T03:45:18;-1.1;72.0
77803;DHT22;66993;48.256;16.422;2023-02-28T03:50:17;-1.5;72.0
77803;DHT22;66993;48.256;16.422;2023-02-28T03:55:17;-1.6;73.0
77803;DHT22;66993;48.256;16.422;2023-02-28T04:00:17;-1.6;73.0
77803;DHT22;66993;48.256;16.422;2023-02-28T04:05:17;-1.5;73.0
77803;DHT22;66993;48.256;16.422;2023-02-28T04:10:17;-1.4;73.0
77803;DHT22;66993;48.256;16.422;2023-02-28T04:15:17;-1.7;74.0
77803;DHT22;66993;48.256;16.422;2023-02-28T04:20:17;-1.9;74.0
77803;DHT22;66993;48.256;16.422;2023-02-28T04:25:17;-1.9;74.0
77803;DHT22;66993;48.256;16.422;2023-02-28T04:30:17;-1.9;74.0
77803;DHT22;66993;48.256;16.422;2023-02-28T04:35:17;-1.6;75.0
77803;DHT22;66993;48.256;16.422;2023-02-28T04:40:17;-1.6;75.0
77803;DHT22;66993;48.256;16.422;2023-02-28T04:45:17;-1.5;76.0
77803;DHT22;66993;48.256;16.422;2023-02-28T04:50:17;-1.5;76.0
77803;DHT22;66993;48.256;16.422;2023-02-28T04:55:17;-1.5;76.0
77803;DHT22;66993;48.256;16.422;2023-02-28T05:00:17;-1.5;76.0
77803;DHT22;66993;48.256;16.422;2023-02-28T05:05:17;-1.5;76.0
77803;DHT22;66993;48.256;16.422;2023-02-28T05:10:17;-1.7;76.0
77803;DHT22;66993;48.256;16.422;2023-02-28T05:15:17;-1.8;76.0
77803;DHT22;66993;48.256;16.422;2023-02-28T05:20:17;-2.0;76.0
77803;DHT22;66993;48.256;16.422;2023-02-28T05:25:18;-2.2;76.0
77803;DHT22;66993;48.256;16.422;2023-02-28T05:30:17;-2.2;77.0
77803;DHT22;66993;48.256;16.422;2023-02-28T05:35:17;-2.3;77.0
77803;DHT22;66993;48.256;16.422;2023-02-28T05:40:17;-2.4;77.0
77803;DHT22;66993;48.256;16.422;2023-02-28T05:45:17;-2.5;77.0
77803;DHT22;66993;48.256;16.422;2023-02-28T05:50:17;-2.4;77.0
77803;DHT22;66993;48.256;16.422;2023-02-28T05:55:17;-2.4;78.0
77803;DHT22;66993;48.256;16.422;2023-02-28T06:00:17;-2.3;78.0
77803;DHT22;66993;48.256;16.422;2023-02-28T06:05:17;-2.2;78.0
77803;DHT22;66993;48.256;16.422;2023-02-28T06:10:17;-2.1;78.0
77803;DHT22;66993;48.256;16.422;2023-02-28T06:15:17;-2.0;79.0
77803;DHT22;66993;48.256;16.422;2023-02-28T06:20:17;-1.9;79.0
77803;DHT22;66993;48.256;16.422;2023-02-28T06:25:17;-1.8;79.0
77803;DHT22;66993;48.256;16.422;2023-02-28T06:30:17;-1.6;80.0
77803;DHT22;66993;48.256;16.422;2023-02-28T06:35:17;-1.4;80.0
77803;DHT22;66993;48.256;16.422;2023-02-28T06:40:17;-1.4;80.0
77803;DHT22;66993;48.256;16.422;2023-02-28T06:45:17;-1.3;79.0
77803;DHT22;66993;48.256;16.422;2023-02-28T06:50:17;-1.1;79.0
77803;DHT22;66993;48.256;16.422;2023-02-28T06:55:17;-0.9;79.0
77803;DHT22;66993;48.256;16.422;2023-02-28T07:00:17;-0.8;79.0
77803;DHT22;66993;48.256;16.422;2023-02-28T07:05:17;-0.6;79.0
77803;DHT22;66993;48.256;16.422;2023-02-28T07:10:17;-0.5;79.0
77803;DHT22;66993;48.256;16.422;2023-02-28T07:15:17;-0.3;78.0
77803;DHT22;66993;48.256;16.422;2023-02-28T07:20:17;-0.2;78.0
77803;DHT22;66993;48.256;16.422;2023-02-28T07:25:17;-0.1;77.0
77803;DHT22;66993;48.256;16.422;2023-02-28T07:30:17;0.0;77.0
77803;DHT22;66993;48.256;16.422;2023-02-28T07:35:17;0.1;76.0
77803;DHT22;66993;48.256;16.422;2023-02-28T07:40:17;0.3;76.0
77803;DHT22;66993;48.256;16.422;2023-02-28T07:45:17;0.5;76.0
77803;DHT22;66993;48.256;16.422;2023-02-28T07:50:16;0.6;76.0
77803;DHT22;66993;48.256;16.422;2023-02-28T07:55:17;0.7;75.0
77803;DHT22;66993;48.256;16.422;2023-02-28T08:00:17;1.1;74.0
77803;DHT22;66993;48.256;16.422;2023-02-28T08:05:17;1.3;74.0
77803;DHT22;66993;48.256;16.422;2023-02-28T08:10:17;1.4;74.0
77803;DHT22;66993;48.256;16.422;2023-02-28T08:15:17;1.6;74.0
77803;DHT22;66993;48.256;16.422;2023-02-28T08:20:17;2.0;74.0
77803;DHT22;66993;48.256;16.422;2023-02-28T08:25:17;2.4;74.0
77803;DHT22;66993;48.256;16.422;2023-02-28T08:30:17;2.9;73.0
77803;DHT22;66993;48.256;16.422;2023-02-28T08:35:17;2.9;73.0
77803;DHT22;66993;48.256;16.422;2023-02-28T08:40:17;2.6;71.0
77803;DHT22;66993;48.256;16.422;2023-02-28T08:45:17;3.1;71.0
77803;DHT22;66993;48.256;16.422;2023-02-28T08:50:17;3.2;71.0
77803;DHT22;66993;48.256;16.422;2023-02-28T08:55:17;3.3;70.0
77803;DHT22;66993;48.256;16.422;2023-02-28T09:00:17;2.8;70.0
77803;DHT22;66993;48.256;16.422;2023-02-28T09:05:16;3.8;70.0
77803;DHT22;66993;48.256;16.422;2023-02-28T09:10:17;4.1;69.0
77803;DHT22;66993;48.256;16.422;2023-02-28T09:15:17;3.9;70.0
77803;DHT22;66993;48.256;16.422;2023-02-28T09:20:17;4.1;69.0
77803;DHT22;66993;48.256;16.422;2023-02-28T09:25:17;4.1;69.0
77803;DHT22;66993;48.256;16.422;2023-02-28T09:30:17;4.6;69.0
77803;DHT22;66993;48.256;16.422;2023-02-28T09:35:17;4.6;68.0
77803;DHT22;66993;48.256;16.422;2023-02-28T09:40:17;4.7;68.0
77803;DHT22;66993;48.256;16.422;2023-02-28T09:45:19;5.2;67.0
77803;DHT22;66993;48.256;16.422;2023-02-28T09:50:19;5.0;66.0
77803;DHT22;66993;48.256;16.422;2023-02-28T09:55:19;5.5;66.0
77803;DHT22;66993;48.256;16.422;2023-02-28T10:00:17;5.7;66.0
77803;DHT22;66993;48.256;16.422;2023-02-28T10:05:17;5.4;66.0
77803;DHT22;66993;48.256;16.422;2023-02-28T10:10:18;5.2;66.0
77803;DHT22;66993;48.256;16.422;2023-02-28T10:15:16;4.7;65.0
77803;DHT22;66993;48.256;16.422;2023-02-28T10:20:17;4.2;66.0
77803;DHT22;66993;48.256;16.422;2023-02-28T10:25:17;4.1;65.0
77803;DHT22;66993;48.256;16.422;2023-02-28T10:30:17;4.6;66.0
77803;DHT22;66993;48.256;16.422;2023-02-28T10:35:18;4.6;66.0
77803;DHT22;66993;48.256;16.422;2023-02-28T10:40:32;4.7;66.0
77803;DHT22;66993;48.256;16.422;2023-02-28T10:45:17;5.6;66.0
77803;DHT22;66993;48.256;16.422;2023-02-28T10:50:33;5.3;66.0
77803;DHT22;66993;48.256;16.422;2023-02-28T10:55:20;5.8;66.0
77803;DHT22;66993;48.256;16.422;2023-02-28T11:00:18;6.3;65.0
77803;DHT22;66993;48.256;16.422;2023-02-28T11:05:26;6.2;65.0
77803;DHT22;66993;48.256;16.422;2023-02-28T11:10:18;5.7;65.0
77803;DHT22;66993;48.256;16.422;2023-02-28T11:15:20;5.4;65.0
77803;DHT22;66993;48.256;16.422;2023-02-28T11:20:18;5.1;64.0
77803;DHT22;66993;48.256;16.422;2023-02-28T11:25:19;6.1;65.0
77803;DHT22;66993;48.256;16.422;2023-02-28T11:30:23;5.6;64.0
77803;DHT22;66993;48.256;16.422;2023-02-28T11:35:18;5.7;64.0
77803;DHT22;66993;48.256;16.422;2023-02-28T11:40:18;6.0;61.0
77803;DHT22;66993;48.256;16.422;2023-02-28T11:45:21;6.5;51.0
77803;DHT22;66993;48.256;16.422;2023-02-28T11:50:20;6.9;49.0
77803;DHT22;66993;48.256;16.422;2023-02-28T11:55:18;7.4;46.0
77803;DHT22;66993;48.256;16.422;2023-02-28T12:00:22;7.3;38.0
77803;DHT22;66993;48.256;16.422;2023-02-28T12:05:20;7.3;44.0
77803;DHT22;66993;48.256;16.422;2023-02-28T12:10:20;6.8;44.0
77803;DHT22;66993;48.256;16.422;2023-02-28T12:15:21;7.4;46.0
77803;DHT22;66993;48.256;16.422;2023-02-28T12:20:18;7.8;48.0
77803;DHT22;66993;48.256;16.422;2023-02-28T12:25:21;7.2;48.0
77803;DHT22;66993;48.256;16.422;2023-02-28T12:30:17;7.7;49.0
77803;DHT22;66993;48.256;16.422;2023-02-28T12:35:17;6.7;50.0
77803;DHT22;66993;48.256;16.422;2023-02-28T12:40:18;6.8;52.0
77803;DHT22;66993;48.256;16.422;2023-02-28T12:45:18;6.5;53.0
77803;DHT22;66993;48.256;16.422;2023-02-28T12:50:17;6.3;53.0
77803;DHT22;66993;48.256;16.422;2023-02-28T12:55:19;6.0;53.0
77803;DHT22;66993;48.256;16.422;2023-02-28T13:00:17;5.9;54.0
77803;DHT22;66993;48.256;16.422;2023-02-28T13:05:24;5.9;54.0
77803;DHT22;66993;48.256;16.422;2023-02-28T13:10:17;6.4;54.0
77803;DHT22;66993;48.256;16.422;2023-02-28T13:15:18;6.4;54.0
77803;DHT22;66993;48.256;16.422;2023-02-28T13:20:18;6.9;55.0
77803;DHT22;66993;48.256;16.422;2023-02-28T13:25:52;7.7;54.0
77803;DHT22;66993;48.256;16.422;2023-02-28T13:40:32;7.7;54.0
77803;DHT22;66993;48.256;16.422;2023-02-28T13:45:20;6.7;53.0
77803;DHT22;66993;48.256;16.422;2023-02-28T13:50:20;6.2;53.0
77803;DHT22;66993;48.256;16.422;2023-02-28T13:55:24;6.3;53.0
77803;DHT22;66993;48.256;16.422;2023-02-28T14:00:20;7.3;53.0
77803;DHT22;66993;48.256;16.422;2023-02-28T14:05:17;7.8;53.0
77803;DHT22;66993;48.256;16.422;2023-02-28T14:10:21;8.8;54.0
77803;DHT22;66993;48.256;16.422;2023-02-28T14:15:26;9.3;54.0
77803;DHT22;66993;48.256;16.422;2023-02-28T14:20:17;9.8;54.0
77803;DHT22;66993;48.256;16.422;2023-02-28T14:25:18;10.3;54.0
77803;DHT22;66993;48.256;16.422;2023-02-28T14:30:29;10.0;53.0
77803;DHT22;66993;48.256;16.422;2023-02-28T14:35:20;10.0;53.0
77803;DHT22;66993;48.256;16.422;2023-02-28T14:40:17;10.0;53.0
77803;DHT22;66993;48.256;16.422;2023-02-28T14:45:17;9.5;53.0
77803;DHT22;66993;48.256;16.422;2023-02-28T14:50:17;9.7;53.0
77803;DHT22;66993;48.256;16.422;2023-02-28T14:55:18;8.9;52.0
77803;DHT22;66993;48.256;16.422;2023-02-28T15:00:20;9.4;52.0
77803;DHT22;66993;48.256;16.422;2023-02-28T15:05:21;9.4;52.0
77803;DHT22;66993;48.256;16.422;2023-02-28T15:10:17;8.9;52.0
77803;DHT22;66993;48.256;16.422;2023-02-28T15:15:17;9.1;53.0
77803;DHT22;66993;48.256;16.422;2023-02-28T15:20:17;7.9;52.0
77803;DHT22;66993;48.256;16.422;2023-02-28T15:25:18;8.4;52.0
77803;DHT22;66993;48.256;16.422;2023-02-28T15:30:17;7.4;53.0
77803;DHT22;66993;48.256;16.422;2023-02-28T15:35:18;7.8;53.0
77803;DHT22;66993;48.256;16.422;2023-02-28T15:40:17;7.0;53.0
77803;DHT22;66993;48.256;16.422;2023-02-28T15:45:33;6.5;53.0
77803;DHT22;66993;48.256;16.422;2023-02-28T15:50:17;6.3;54.0
77803;DHT22;66993;48.256;16.422;2023-02-28T15:55:18;6.2;55.0
77803;DHT22;66993;48.256;16.422;2023-02-28T16:00:19;5.7;55.0
77803;DHT22;66993;48.256;16.422;2023-02-28T16:05:19;5.4;55.0
77803;DHT22;66993;48.256;16.422;2023-02-28T16:10:17;5.1;55.0
77803;DHT22;66993;48.256;16.422;2023-02-28T16:15:18;4.8;55.0
77803;DHT22;66993;48.256;16.422;2023-02-28T16:20:17;4.7;55.0
77803;DHT22;66993;48.256;16.422;2023-02-28T16:25:18;4.4;56.0
77803;DHT22;66993;48.256;16.422;2023-02-28T16:30:18;4.3;56.0
77803;DHT22;66993;48.256;16.422;2023-02-28T16:35:17;4.2;57.0
77803;DHT22;66993;48.256;16.422;2023-02-28T16:40:17;3.9;58.0
77803;DHT22;66993;48.256;16.422;2023-02-28T16:45:17;3.8;58.0
77803;DHT22;66993;48.256;16.422;2023-02-28T16:50:17;3.5;59.0
77803;DHT22;66993;48.256;16.422;2023-02-28T16:55:17;3.3;59.0
77803;DHT22;66993;48.256;16.422;2023-02-28T17:00:17;3.2;60.0
77803;DHT22;66993;48.256;16.422;2023-02-28T17:05:17;3.2;60.0
77803;DHT22;66993;48.256;16.422;2023-02-28T17:10:17;3.1;61.0
77803;DHT22;66993;48.256;16.422;2023-02-28T17:15:18;3.1;62.0
77803;DHT22;66993;48.256;16.422;2023-02-28T17:20:18;3.2;62.0
77803;DHT22;66993;48.256;16.422;2023-02-28T17:25:17;3.2;63.0
77803;DHT22;66993;48.256;16.422;2023-02-28T17:30:18;3.2;64.0
77803;DHT22;66993;48.256;16.422;2023-02-28T17:35:17;3.2;64.0
77803;DHT22;66993;48.256;16.422;2023-02-28T17:40:18;3.2;64.0
77803;DHT22;66993;48.256;16.422;2023-02-28T17:45:17;3.3;64.0
77803;DHT22;66993;48.256;16.422;2023-02-28T17:50:17;3.3;64.0
77803;DHT22;66993;48.256;16.422;2023-02-28T17:55:17;3.1;63.0
77803;DHT22;66993;48.256;16.422;2023-02-28T18:00:17;3.1;63.0
77803;DHT22;66993;48.256;16.422;2023-02-28T18:05:17;2.9;63.0
77803;DHT22;66993;48.256;16.422;2023-02-28T18:10:18;2.7;62.0
77803;DHT22;66993;48.256;16.422;2023-02-28T18:15:17;2.6;62.0
77803;DHT22;66993;48.256;16.422;2023-02-28T18:20:17;2.5;62.0
77803;DHT22;66993;48.256;16.422;2023-02-28T18:25:17;2.2;62.0
77803;DHT22;66993;48.256;16.422;2023-02-28T18:30:17;2.2;63.0
77803;DHT22;66993;48.256;16.422;2023-02-28T18:35:17;2.1;63.0
77803;DHT22;66993;48.256;16.422;2023-02-28T18:40:17;2.1;63.0
77803;DHT22;66993;48.256;16.422;2023-02-28T18:45:17;1.8;64.0
77803;DHT22;66993;48.256;16.422;2023-02-28T18:50:17;1.9;65.0
77803;DHT22;66993;48.256;16.422;2023-02-28T18:55:17;1.8;65.0
77803;DHT22;66993;48.256;16.422;2023-02-28T19:00:17;1.5;66.0
77803;DHT22;66993;48.256;16.422;2023-02-28T19:05:17;1.2;66.0
77803;DHT22;66993;48.256;16.422;2023-02-28T19:10:17;0.9;66.0
77803;DHT22;66993;48.256;16.422;2023-02-28T19:15:17;0.8;67.0
77803;DHT22;66993;48.256;16.422;2023-02-28T19:20:17;0.9;67.0
77803;DHT22;66993;48.256;16.422;2023-02-28T19:25:17;0.5;67.0
77803;DHT22;66993;48.256;16.422;2023-02-28T19:30:17;0.3;68.0
77803;DHT22;66993;48.256;16.422;2023-02-28T19:35:17;0.4;69.0
77803;DHT22;66993;48.256;16.422;2023-02-28T19:40:17;0.1;69.0
77803;DHT22;66993;48.256;16.422;2023-02-28T19:45:17;-0.3;70.0
77803;DHT22;66993;48.256;16.422;2023-02-28T19:50:17;-0.4;70.0
77803;DHT22;66993;48.256;16.422;2023-02-28T19:55:17;-0.3;71.0
77803;DHT22;66993;48.256;16.422;2023-02-28T20:00:17;-0.4;71.0
77803;DHT22;66993;48.256;16.422;2023-02-28T20:05:17;-0.3;71.0
77803;DHT22;66993;48.256;16.422;2023-02-28T20:10:17;-0.5;72.0
77803;DHT22;66993;48.256;16.422;2023-02-28T20:15:17;-0.8;72.0
77803;DHT22;66993;48.256;16.422;2023-02-28T20:20:17;-0.7;72.0
77803;DHT22;66993;48.256;16.422;2023-02-28T20:25:17;-0.2;73.0
77803;DHT22;66993;48.256;16.422;2023-02-28T20:30:17;-0.4;73.0
77803;DHT22;66993;48.256;16.422;2023-02-28T20:35:17;-0.7;74.0
77803;DHT22;66993;48.256;16.422;2023-02-28T20:40:17;-0.5;74.0
77803;DHT22;66993;48.256;16.422;2023-02-28T20:45:17;-0.2;74.0
77803;DHT22;66993;48.256;16.422;2023-02-28T20:50:17;0.0;75.0
77803;DHT22;66993;48.256;16.422;2023-02-28T20:55:17;-0.5;75.0
77803;DHT22;66993;48.256;16.422;2023-02-28T21:00:17;0.0;75.0
77803;DHT22;66993;48.256;16.422;2023-02-28T21:05:17;-0.5;75.0
77803;DHT22;66993;48.256;16.422;2023-02-28T21:10:17;-1.0;76.0
77803;DHT22;66993;48.256;16.422;2023-02-28T21:15:17;-0.8;76.0
77803;DHT22;66993;48.256;16.422;2023-02-28T21:20:17;-1.1;76.0
77803;DHT22;66993;48.256;16.422;2023-02-28T21:25:17;-0.8;76.0
77803;DHT22;66993;48.256;16.422;2023-02-28T21:30:17;-0.3;76.0
77803;DHT22;66993;48.256;16.422;2023-02-28T21:35:17;-0.3;77.0
77803;DHT22;66993;48.256;16.422;2023-02-28T21:40:17;-0.2;77.0
77803;DHT22;66993;48.256;16.422;2023-02-28T21:45:17;-0.1;77.0
77803;DHT22;66993;48.256;16.422;2023-02-28T21:50:17;-0.8;77.0
77803;DHT22;66993;48.256;16.422;2023-02-28T21:55:17;-0.5;77.0
77803;DHT22;66993;48.256;16.422;2023-02-28T22:00:17;-0.9;78.0
77803;DHT22;66993;48.256;16.422;2023-02-28T22:05:17;-0.7;78.0
77803;DHT22;66993;48.256;16.422;2023-02-28T22:10:17;-1.2;78.0
77803;DHT22;66993;48.256;16.422;2023-02-28T22:15:17;-1.2;78.0
77803;DHT22;66993;48.256;16.422;2023-02-28T22:20:17;-1.3;78.0
77803;DHT22;66993;48.256;16.422;2023-02-28T22:25:17;-1.2;78.0
77803;DHT22;66993;48.256;16.422;2023-02-28T22:30:17;-1.0;79.0
77803;DHT22;66993;48.256;16.422;2023-02-28T22:35:17;-1.2;79.0
77803;DHT22;66993;48.256;16.422;2023-02-28T22:40:17;-1.2;79.0
77803;DHT22;66993;48.256;16.422;2023-02-28T22:45:17;-1.1;79.0
77803;DHT22;66993;48.256;16.422;2023-02-28T22:50:17;-1.1;79.0
77803;DHT22;66993;48.256;16.422;2023-02-28T22:55:17;-0.7;79.0
77803;DHT22;66993;48.256;16.422;2023-02-28T23:00:17;-0.8;79.0
77803;DHT22;66993;48.256;16.422;2023-02-28T23:05:17;-0.6;80.0
77803;DHT22;66993;48.256;16.422;2023-02-28T23:10:17;-0.8;80.0
77803;DHT22;66993;48.256;16.422;2023-02-28T23:15:17;-0.7;80.0
77803;DHT22;66993;48.256;16.422;2023-02-28T23:20:18;-0.7;80.0
77803;DHT22;66993;48.256;16.422;2023-02-28T23:25:17;-1.0;80.0
77803;DHT22;66993;48.256;16.422;2023-02-28T23:30:17;-1.4;80.0
77803;DHT22;66993;48.256;16.422;2023-02-28T23:35:17;-1.5;80.0
77803;DHT22;66993;48.256;16.422;2023-02-28T23:40:17;-1.4;80.0
77803;DHT22;66993;48.256;16.422;2023-02-28T23:45:17;-1.2;80.0
77803;DHT22;66993;48.256;16.422;2023-02-28T23:50:17;-1.2;80.0
77803;DHT22;66993;48.256;16.422;2023-02-28T23:55:17;-1.1;80.0
